Weather at Skaneateles Aero Drome Airport

Public forecast

Using degrees Fahrenheit for public forecast. Weather courtesy of forecast.io.

Closest aviation weather report (METAR) to Skaneateles Aero Drome Airport

Closest report is Syracuse Hancock International Airport, 18.9 nm (34.9 km) NE. Retrieved 2020/09/23 05:54 UTC (23 minutes ago):

KSYR 230554Z 26008KT 10SM BKN060 BKN075 13/09 A2993 RMK AO2 SLP133 T01330094 10139 20106 58017

Closest aviation forecast (TAF) to Skaneateles Aero Drome Airport

Closest forecast is Syracuse Hancock International Airport, 18.9 nm (34.9 km) NE. Retrieved 2020/09/23 06:33 UTC (0 seconds ago):

TAF KSYR 230530Z 2306/2406 24004KT P6SM BKN070 TEMPO 2311/2313 BKN025 FM231600 29010G18KT P6SM SCT040 FM232200 30009KT P6SM FEW250